sensor_id;sensor_type;location;lat;lon;timestamp;temperature;humidity
19017;DHT22;9641;51.494;6.670;2022-09-23T00:00:25;12.70;90.10
19017;DHT22;9641;51.494;6.670;2022-09-23T00:02:52;12.70;13.20
19017;DHT22;9641;51.494;6.670;2022-09-23T00:05:19;12.60;1.00
19017;DHT22;9641;51.494;6.670;2022-09-23T00:07:45;12.60;1.00
19017;DHT22;9641;51.494;6.670;2022-09-23T00:10:15;12.50;1.00
19017;DHT22;9641;51.494;6.670;2022-09-23T00:12:41;12.50;1.00
19017;DHT22;9641;51.494;6.670;2022-09-23T00:15:09;12.50;1.00
19017;DHT22;9641;51.494;6.670;2022-09-23T00:17:36;12.50;17.10
19017;DHT22;9641;51.494;6.670;2022-09-23T00:20:03;12.50;1.00
19017;DHT22;9641;51.494;6.670;2022-09-23T00:22:32;12.50;1.00
19017;DHT22;9641;51.494;6.670;2022-09-23T00:25:00;12.50;1.00
19017;DHT22;9641;51.494;6.670;2022-09-23T00:27:28;12.40;1.00
19017;DHT22;9641;51.494;6.670;2022-09-23T00:29:55;12.40;1.00
19017;DHT22;9641;51.494;6.670;2022-09-23T00:32:22;12.40;99.90
19017;DHT22;9641;51.494;6.670;2022-09-23T00:34:49;12.50;1.00
19017;DHT22;9641;51.494;6.670;2022-09-23T00:37:16;12.50;19.10
19017;DHT22;9641;51.494;6.670;2022-09-23T00:39:43;12.40;1.00
19017;DHT22;9641;51.494;6.670;2022-09-23T00:42:13;12.40;99.90
19017;DHT22;9641;51.494;6.670;2022-09-23T00:44:56;12.40;1.00
19017;DHT22;9641;51.494;6.670;2022-09-23T00:47:30;12.40;1.00
19017;DHT22;9641;51.494;6.670;2022-09-23T00:50:02;12.40;1.00
19017;DHT22;9641;51.494;6.670;2022-09-23T00:52:31;12.40;1.00
19017;DHT22;9641;51.494;6.670;2022-09-23T00:55:00;12.40;1.00
19017;DHT22;9641;51.494;6.670;2022-09-23T00:57:28;12.40;1.00
19017;DHT22;9641;51.494;6.670;2022-09-23T00:59:57;12.40;99.90
19017;DHT22;9641;51.494;6.670;2022-09-23T01:02:24;12.40;99.90
19017;DHT22;9641;51.494;6.670;2022-09-23T01:04:53;12.40;99.90
19017;DHT22;9641;51.494;6.670;2022-09-23T01:07:20;12.40;1.00
19017;DHT22;9641;51.494;6.670;2022-09-23T01:09:48;12.40;1.00
19017;DHT22;9641;51.494;6.670;2022-09-23T01:12:27;12.40;1.00
19017;DHT22;9641;51.494;6.670;2022-09-23T01:15:01;12.40;1.00
19017;DHT22;9641;51.494;6.670;2022-09-23T01:17:38;12.30;99.90
19017;DHT22;9641;51.494;6.670;2022-09-23T01:20:36;12.30;1.00
19017;DHT22;9641;51.494;6.670;2022-09-23T01:23:17;12.30;1.00
19017;DHT22;9641;51.494;6.670;2022-09-23T01:26:04;12.30;1.00
19017;DHT22;9641;51.494;6.670;2022-09-23T01:28:54;12.20;1.00
19017;DHT22;9641;51.494;6.670;2022-09-23T01:31:35;12.20;99.90
19017;DHT22;9641;51.494;6.670;2022-09-23T01:34:08;12.20;99.90
19017;DHT22;9641;51.494;6.670;2022-09-23T01:36:39;12.20;1.00
19017;DHT22;9641;51.494;6.670;2022-09-23T01:39:12;12.30;1.00
19017;DHT22;9641;51.494;6.670;2022-09-23T01:41:49;12.30;99.90
19017;DHT22;9641;51.494;6.670;2022-09-23T01:44:21;12.20;1.00
19017;DHT22;9641;51.494;6.670;2022-09-23T01:46:53;12.20;1.00
19017;DHT22;9641;51.494;6.670;2022-09-23T01:49:26;12.20;99.90
19017;DHT22;9641;51.494;6.670;2022-09-23T01:51:58;12.10;1.00
19017;DHT22;9641;51.494;6.670;2022-09-23T01:54:29;12.10;67.50
19017;DHT22;9641;51.494;6.670;2022-09-23T01:57:01;12.10;1.00
19017;DHT22;9641;51.494;6.670;2022-09-23T01:59:33;12.10;1.00
19017;DHT22;9641;51.494;6.670;2022-09-23T02:02:04;12.10;1.00
19017;DHT22;9641;51.494;6.670;2022-09-23T02:04:36;12.10;99.90
19017;DHT22;9641;51.494;6.670;2022-09-23T02:07:12;12.10;99.90
19017;DHT22;9641;51.494;6.670;2022-09-23T02:09:42;12.10;1.00
19017;DHT22;9641;51.494;6.670;2022-09-23T02:12:14;12.10;1.00
19017;DHT22;9641;51.494;6.670;2022-09-23T02:14:45;12.10;1.00
19017;DHT22;9641;51.494;6.670;2022-09-23T02:17:18;12.10;1.00
19017;DHT22;9641;51.494;6.670;2022-09-23T02:19:52;12.10;99.90
19017;DHT22;9641;51.494;6.670;2022-09-23T02:22:23;12.10;1.00
19017;DHT22;9641;51.494;6.670;2022-09-23T02:24:51;12.10;44.30
19017;DHT22;9641;51.494;6.670;2022-09-23T02:27:23;12.10;1.00
19017;DHT22;9641;51.494;6.670;2022-09-23T02:29:56;12.10;99.90
19017;DHT22;9641;51.494;6.670;2022-09-23T02:32:30;12.10;1.00
19017;DHT22;9641;51.494;6.670;2022-09-23T02:35:00;12.00;1.00
19017;DHT22;9641;51.494;6.670;2022-09-23T02:37:38;12.00;99.90
19017;DHT22;9641;51.494;6.670;2022-09-23T02:40:13;12.00;1.00
19017;DHT22;9641;51.494;6.670;2022-09-23T02:42:49;12.00;1.00
19017;DHT22;9641;51.494;6.670;2022-09-23T02:45:18;12.00;1.00
19017;DHT22;9641;51.494;6.670;2022-09-23T02:47:49;12.00;99.90
19017;DHT22;9641;51.494;6.670;2022-09-23T02:50:18;11.90;1.00
19017;DHT22;9641;51.494;6.670;2022-09-23T02:52:46;12.00;99.90
19017;DHT22;9641;51.494;6.670;2022-09-23T02:55:16;11.90;99.90
19017;DHT22;9641;51.494;6.670;2022-09-23T02:57:43;11.90;1.00
19017;DHT22;9641;51.494;6.670;2022-09-23T03:00:12;11.90;1.00
19017;DHT22;9641;51.494;6.670;2022-09-23T03:02:59;11.90;1.00
19017;DHT22;9641;51.494;6.670;2022-09-23T03:05:33;11.90;1.00
19017;DHT22;9641;51.494;6.670;2022-09-23T03:08:18;11.90;1.00
19017;DHT22;9641;51.494;6.670;2022-09-23T03:10:51;11.80;1.00
19017;DHT22;9641;51.494;6.670;2022-09-23T03:13:28;11.80;99.90
19017;DHT22;9641;51.494;6.670;2022-09-23T03:16:10;11.80;1.00
19017;DHT22;9641;51.494;6.670;2022-09-23T03:18:43;11.80;1.00
19017;DHT22;9641;51.494;6.670;2022-09-23T03:21:15;11.80;1.00
19017;DHT22;9641;51.494;6.670;2022-09-23T03:23:43;11.80;99.90
19017;DHT22;9641;51.494;6.670;2022-09-23T03:26:15;11.80;1.00
19017;DHT22;9641;51.494;6.670;2022-09-23T03:28:44;11.70;1.00
19017;DHT22;9641;51.494;6.670;2022-09-23T03:31:12;11.70;93.60
19017;DHT22;9641;51.494;6.670;2022-09-23T03:33:46;11.70;1.00
19017;DHT22;9641;51.494;6.670;2022-09-23T03:36:16;11.60;1.00
19017;DHT22;9641;51.494;6.670;2022-09-23T03:39:03;11.70;99.90
19017;DHT22;9641;51.494;6.670;2022-09-23T03:41:34;11.60;1.00
19017;DHT22;9641;51.494;6.670;2022-09-23T03:44:03;11.60;1.00
19017;DHT22;9641;51.494;6.670;2022-09-23T03:46:32;11.60;1.00
19017;DHT22;9641;51.494;6.670;2022-09-23T03:49:07;11.60;1.00
19017;DHT22;9641;51.494;6.670;2022-09-23T03:51:35;11.60;88.90
19017;DHT22;9641;51.494;6.670;2022-09-23T03:54:03;11.50;1.00
19017;DHT22;9641;51.494;6.670;2022-09-23T03:56:30;11.50;99.90
19017;DHT22;9641;51.494;6.670;2022-09-23T03:58:57;11.50;1.00
19017;DHT22;9641;51.494;6.670;2022-09-23T04:01:23;11.40;1.00
19017;DHT22;9641;51.494;6.670;2022-09-23T04:03:51;11.40;99.90
19017;DHT22;9641;51.494;6.670;2022-09-23T04:06:20;11.30;1.00
19017;DHT22;9641;51.494;6.670;2022-09-23T04:08:47;11.30;99.90
19017;DHT22;9641;51.494;6.670;2022-09-23T04:11:14;11.30;1.00
19017;DHT22;9641;51.494;6.670;2022-09-23T04:13:41;11.30;1.00
19017;DHT22;9641;51.494;6.670;2022-09-23T04:16:08;11.30;1.00
19017;DHT22;9641;51.494;6.670;2022-09-23T04:18:35;11.20;99.10
19017;DHT22;9641;51.494;6.670;2022-09-23T04:21:02;11.20;1.00
19017;DHT22;9641;51.494;6.670;2022-09-23T04:23:30;11.20;26.20
19017;DHT22;9641;51.494;6.670;2022-09-23T04:25:57;11.20;99.90
19017;DHT22;9641;51.494;6.670;2022-09-23T04:28:23;11.20;38.80
19017;DHT22;9641;51.494;6.670;2022-09-23T04:30:50;11.10;99.90
19017;DHT22;9641;51.494;6.670;2022-09-23T04:33:18;11.10;1.00
19017;DHT22;9641;51.494;6.670;2022-09-23T04:35:48;11.00;1.00
19017;DHT22;9641;51.494;6.670;2022-09-23T04:38:15;11.00;1.00
19017;DHT22;9641;51.494;6.670;2022-09-23T04:40:44;11.00;99.90
19017;DHT22;9641;51.494;6.670;2022-09-23T04:43:11;11.00;1.00
19017;DHT22;9641;51.494;6.670;2022-09-23T04:45:39;11.00;1.00
19017;DHT22;9641;51.494;6.670;2022-09-23T04:48:06;11.00;1.00
19017;DHT22;9641;51.494;6.670;2022-09-23T04:50:34;11.00;1.00
19017;DHT22;9641;51.494;6.670;2022-09-23T04:53:02;11.00;99.90
19017;DHT22;9641;51.494;6.670;2022-09-23T04:55:29;11.00;1.00
19017;DHT22;9641;51.494;6.670;2022-09-23T04:57:58;11.00;1.00
19017;DHT22;9641;51.494;6.670;2022-09-23T05:00:24;11.00;99.90
19017;DHT22;9641;51.494;6.670;2022-09-23T05:02:53;11.00;97.60
19017;DHT22;9641;51.494;6.670;2022-09-23T05:05:20;11.00;1.00
19017;DHT22;9641;51.494;6.670;2022-09-23T05:07:48;11.00;1.00
19017;DHT22;9641;51.494;6.670;2022-09-23T05:10:16;11.00;99.90
19017;DHT22;9641;51.494;6.670;2022-09-23T05:12:44;11.00;99.90
19017;DHT22;9641;51.494;6.670;2022-09-23T05:15:12;10.90;1.00
19017;DHT22;9641;51.494;6.670;2022-09-23T05:17:39;10.90;1.00
19017;DHT22;9641;51.494;6.670;2022-09-23T05:20:08;10.90;1.00
19017;DHT22;9641;51.494;6.670;2022-09-23T05:22:35;10.90;1.00
19017;DHT22;9641;51.494;6.670;2022-09-23T05:25:02;10.80;63.00
19017;DHT22;9641;51.494;6.670;2022-09-23T05:27:29;10.80;99.90
19017;DHT22;9641;51.494;6.670;2022-09-23T05:29:56;10.70;99.90
19017;DHT22;9641;51.494;6.670;2022-09-23T05:32:24;10.60;99.90
19017;DHT22;9641;51.494;6.670;2022-09-23T05:34:52;10.60;99.90
19017;DHT22;9641;51.494;6.670;2022-09-23T05:37:20;10.60;1.00
19017;DHT22;9641;51.494;6.670;2022-09-23T05:39:47;10.50;1.00
19017;DHT22;9641;51.494;6.670;2022-09-23T05:42:14;10.50;1.00
19017;DHT22;9641;51.494;6.670;2022-09-23T05:44:42;10.40;1.00
19017;DHT22;9641;51.494;6.670;2022-09-23T05:47:11;10.40;1.00
19017;DHT22;9641;51.494;6.670;2022-09-23T05:49:39;10.40;1.00
19017;DHT22;9641;51.494;6.670;2022-09-23T05:52:06;10.40;1.00
19017;DHT22;9641;51.494;6.670;2022-09-23T05:54:33;10.50;1.00
19017;DHT22;9641;51.494;6.670;2022-09-23T05:57:00;10.60;1.00
19017;DHT22;9641;51.494;6.670;2022-09-23T05:59:27;10.70;1.00
19017;DHT22;9641;51.494;6.670;2022-09-23T06:01:54;10.80;99.90
19017;DHT22;9641;51.494;6.670;2022-09-23T06:04:21;10.90;1.00
19017;DHT22;9641;51.494;6.670;2022-09-23T06:06:49;11.10;1.00
19017;DHT22;9641;51.494;6.670;2022-09-23T06:09:17;11.10;99.90
19017;DHT22;9641;51.494;6.670;2022-09-23T06:11:44;11.20;1.00
19017;DHT22;9641;51.494;6.670;2022-09-23T06:14:12;11.40;1.00
19017;DHT22;9641;51.494;6.670;2022-09-23T06:16:39;11.40;1.00
19017;DHT22;9641;51.494;6.670;2022-09-23T06:19:07;11.50;99.90
19017;DHT22;9641;51.494;6.670;2022-09-23T06:21:36;11.60;97.70
19017;DHT22;9641;51.494;6.670;2022-09-23T06:24:06;11.70;1.00
19017;DHT22;9641;51.494;6.670;2022-09-23T06:26:33;11.70;1.00
19017;DHT22;9641;51.494;6.670;2022-09-23T06:29:03;11.80;99.90
19017;DHT22;9641;51.494;6.670;2022-09-23T06:31:30;11.90;99.90
19017;DHT22;9641;51.494;6.670;2022-09-23T06:33:57;12.00;1.00
19017;DHT22;9641;51.494;6.670;2022-09-23T06:36:24;12.00;99.90
19017;DHT22;9641;51.494;6.670;2022-09-23T06:38:51;12.10;99.90
19017;DHT22;9641;51.494;6.670;2022-09-23T06:41:19;12.20;99.90
19017;DHT22;9641;51.494;6.670;2022-09-23T06:43:46;12.20;99.90
19017;DHT22;9641;51.494;6.670;2022-09-23T06:46:14;12.40;99.90
19017;DHT22;9641;51.494;6.670;2022-09-23T06:48:42;12.50;1.00
19017;DHT22;9641;51.494;6.670;2022-09-23T06:51:10;12.50;1.00
19017;DHT22;9641;51.494;6.670;2022-09-23T06:53:46;12.60;1.00
19017;DHT22;9641;51.494;6.670;2022-09-23T06:56:14;12.60;1.00
19017;DHT22;9641;51.494;6.670;2022-09-23T06:58:43;12.60;1.00
19017;DHT22;9641;51.494;6.670;2022-09-23T07:01:12;12.70;1.00
19017;DHT22;9641;51.494;6.670;2022-09-23T07:03:40;12.70;1.00
19017;DHT22;9641;51.494;6.670;2022-09-23T07:06:07;12.80;1.00
19017;DHT22;9641;51.494;6.670;2022-09-23T07:08:44;12.90;1.00
19017;DHT22;9641;51.494;6.670;2022-09-23T07:14:18;13.10;1.00
19017;DHT22;9641;51.494;6.670;2022-09-23T07:16:47;13.20;1.00
19017;DHT22;9641;51.494;6.670;2022-09-23T07:19:15;13.30;1.00
19017;DHT22;9641;51.494;6.670;2022-09-23T07:21:41;13.40;1.00
19017;DHT22;9641;51.494;6.670;2022-09-23T07:24:08;13.40;99.90
19017;DHT22;9641;51.494;6.670;2022-09-23T07:26:36;13.50;99.90
19017;DHT22;9641;51.494;6.670;2022-09-23T07:29:05;13.60;99.90
19017;DHT22;9641;51.494;6.670;2022-09-23T07:31:34;13.60;1.00
19017;DHT22;9641;51.494;6.670;2022-09-23T07:34:01;13.60;1.00
19017;DHT22;9641;51.494;6.670;2022-09-23T07:36:29;13.60;1.00
19017;DHT22;9641;51.494;6.670;2022-09-23T07:38:57;13.60;99.90
19017;DHT22;9641;51.494;6.670;2022-09-23T07:41:29;13.70;93.90
19017;DHT22;9641;51.494;6.670;2022-09-23T07:43:57;13.70;1.00
19017;DHT22;9641;51.494;6.670;2022-09-23T07:46:27;13.80;1.00
19017;DHT22;9641;51.494;6.670;2022-09-23T07:48:55;13.80;1.00
19017;DHT22;9641;51.494;6.670;2022-09-23T07:51:25;13.90;99.90
19017;DHT22;9641;51.494;6.670;2022-09-23T07:53:54;13.90;1.00
19017;DHT22;9641;51.494;6.670;2022-09-23T07:56:24;13.90;1.00
19017;DHT22;9641;51.494;6.670;2022-09-23T07:58:51;14.00;99.90
19017;DHT22;9641;51.494;6.670;2022-09-23T08:01:26;14.10;99.90
19017;DHT22;9641;51.494;6.670;2022-09-23T08:03:55;14.10;1.00
19017;DHT22;9641;51.494;6.670;2022-09-23T08:06:22;14.10;99.90
19017;DHT22;9641;51.494;6.670;2022-09-23T08:08:49;14.10;1.00
19017;DHT22;9641;51.494;6.670;2022-09-23T08:11:16;14.20;99.90
19017;DHT22;9641;51.494;6.670;2022-09-23T08:13:43;14.20;1.00
19017;DHT22;9641;51.494;6.670;2022-09-23T08:16:10;14.20;1.00
19017;DHT22;9641;51.494;6.670;2022-09-23T08:18:37;14.20;1.00
19017;DHT22;9641;51.494;6.670;2022-09-23T08:21:05;14.30;1.00
19017;DHT22;9641;51.494;6.670;2022-09-23T08:23:32;14.30;1.00
19017;DHT22;9641;51.494;6.670;2022-09-23T08:26:01;14.40;99.90
19017;DHT22;9641;51.494;6.670;2022-09-23T08:28:29;14.40;1.00
19017;DHT22;9641;51.494;6.670;2022-09-23T08:30:58;14.50;99.90
19017;DHT22;9641;51.494;6.670;2022-09-23T08:33:26;14.50;96.80
19017;DHT22;9641;51.494;6.670;2022-09-23T08:35:57;14.50;1.00
19017;DHT22;9641;51.494;6.670;2022-09-23T08:38:26;14.60;99.90
19017;DHT22;9641;51.494;6.670;2022-09-23T08:41:03;14.60;99.90
19017;DHT22;9641;51.494;6.670;2022-09-23T08:43:33;14.70;99.90
19017;DHT22;9641;51.494;6.670;2022-09-23T08:46:02;14.70;69.70
19017;DHT22;9641;51.494;6.670;2022-09-23T08:48:32;14.80;1.00
19017;DHT22;9641;51.494;6.670;2022-09-23T08:51:03;14.80;1.00
19017;DHT22;9641;51.494;6.670;2022-09-23T08:53:34;14.90;1.00
19017;DHT22;9641;51.494;6.670;2022-09-23T08:56:03;15.00;99.90
19017;DHT22;9641;51.494;6.670;2022-09-23T08:58:49;15.00;99.90
19017;DHT22;9641;51.494;6.670;2022-09-23T09:01:23;15.10;1.00
19017;DHT22;9641;51.494;6.670;2022-09-23T09:03:53;15.20;99.90
19017;DHT22;9641;51.494;6.670;2022-09-23T09:06:26;15.40;1.00
19017;DHT22;9641;51.494;6.670;2022-09-23T09:09:00;15.50;99.90
19017;DHT22;9641;51.494;6.670;2022-09-23T09:11:32;15.60;1.00
19017;DHT22;9641;51.494;6.670;2022-09-23T09:14:06;15.80;1.00
19017;DHT22;9641;51.494;6.670;2022-09-23T09:16:55;15.90;99.90
19017;DHT22;9641;51.494;6.670;2022-09-23T09:19:44;16.00;99.90
19017;DHT22;9641;51.494;6.670;2022-09-23T09:22:19;16.10;84.60
19017;DHT22;9641;51.494;6.670;2022-09-23T09:24:54;16.30;1.00
19017;DHT22;9641;51.494;6.670;2022-09-23T09:27:22;16.40;1.00
19017;DHT22;9641;51.494;6.670;2022-09-23T09:29:50;16.50;1.00
19017;DHT22;9641;51.494;6.670;2022-09-23T09:32:34;16.70;99.90
19017;DHT22;9641;51.494;6.670;2022-09-23T09:35:08;16.70;99.90
19017;DHT22;9641;51.494;6.670;2022-09-23T09:37:45;16.80;99.90
19017;DHT22;9641;51.494;6.670;2022-09-23T09:40:15;16.80;99.90
19017;DHT22;9641;51.494;6.670;2022-09-23T09:42:46;16.70;99.90
19017;DHT22;9641;51.494;6.670;2022-09-23T09:45:19;16.60;99.90
19017;DHT22;9641;51.494;6.670;2022-09-23T09:47:55;16.60;99.90
19017;DHT22;9641;51.494;6.670;2022-09-23T09:50:44;16.70;99.90
19017;DHT22;9641;51.494;6.670;2022-09-23T09:53:20;16.80;99.90
19017;DHT22;9641;51.494;6.670;2022-09-23T09:55:58;16.90;99.90
19017;DHT22;9641;51.494;6.670;2022-09-23T09:58:27;17.10;99.90
19017;DHT22;9641;51.494;6.670;2022-09-23T10:00:58;17.20;99.90
19017;DHT22;9641;51.494;6.670;2022-09-23T10:03:32;17.20;99.90
19017;DHT22;9641;51.494;6.670;2022-09-23T10:06:01;17.30;99.90
19017;DHT22;9641;51.494;6.670;2022-09-23T10:08:38;17.30;99.90
19017;DHT22;9641;51.494;6.670;2022-09-23T10:11:12;17.20;99.90
19017;DHT22;9641;51.494;6.670;2022-09-23T10:13:41;17.30;99.90
19017;DHT22;9641;51.494;6.670;2022-09-23T10:16:08;17.50;99.90
19017;DHT22;9641;51.494;6.670;2022-09-23T10:18:37;17.60;99.90
19017;DHT22;9641;51.494;6.670;2022-09-23T10:21:07;17.60;90.80
19017;DHT22;9641;51.494;6.670;2022-09-23T10:23:38;17.50;58.60
19017;DHT22;9641;51.494;6.670;2022-09-23T10:26:07;17.50;90.20
19017;DHT22;9641;51.494;6.670;2022-09-23T10:28:40;17.60;74.80
19017;DHT22;9641;51.494;6.670;2022-09-23T10:31:09;17.60;71.70
19017;DHT22;9641;51.494;6.670;2022-09-23T10:33:45;17.60;90.30
19017;DHT22;9641;51.494;6.670;2022-09-23T10:36:14;17.80;99.90
19017;DHT22;9641;51.494;6.670;2022-09-23T10:38:41;17.90;93.50
19017;DHT22;9641;51.494;6.670;2022-09-23T10:41:16;18.00;99.90
19017;DHT22;9641;51.494;6.670;2022-09-23T10:44:16;18.20;99.90
19017;DHT22;9641;51.494;6.670;2022-09-23T10:47:09;18.40;99.90
19017;DHT22;9641;51.494;6.670;2022-09-23T10:49:57;18.60;99.90
19017;DHT22;9641;51.494;6.670;2022-09-23T10:52:38;18.70;99.90
19017;DHT22;9641;51.494;6.670;2022-09-23T10:55:21;18.80;99.90
19017;DHT22;9641;51.494;6.670;2022-09-23T10:58:08;18.90;99.90
19017;DHT22;9641;51.494;6.670;2022-09-23T11:00:45;19.10;78.20
19017;DHT22;9641;51.494;6.670;2022-09-23T11:03:28;19.20;63.80
19017;DHT22;9641;51.494;6.670;2022-09-23T11:06:11;19.30;43.40
19017;DHT22;9641;51.494;6.670;2022-09-23T11:08:51;19.50;33.40
19017;DHT22;9641;51.494;6.670;2022-09-23T11:11:27;19.70;21.80
19017;DHT22;9641;51.494;6.670;2022-09-23T11:14:12;19.80;1.00
19017;DHT22;9641;51.494;6.670;2022-09-23T11:16:57;20.00;5.60
19017;DHT22;9641;51.494;6.670;2022-09-23T11:19:46;20.20;4.60
19017;DHT22;9641;51.494;6.670;2022-09-23T11:22:31;20.40;1.60
19017;DHT22;9641;51.494;6.670;2022-09-23T11:25:12;20.80;1.00
19017;DHT22;9641;51.494;6.670;2022-09-23T11:27:59;20.90;1.00
19017;DHT22;9641;51.494;6.670;2022-09-23T11:30:38;21.00;1.00
19017;DHT22;9641;51.494;6.670;2022-09-23T11:33:15;21.10;1.00
19017;DHT22;9641;51.494;6.670;2022-09-23T11:35:46;21.20;1.00
19017;DHT22;9641;51.494;6.670;2022-09-23T11:38:17;20.90;1.00
19017;DHT22;9641;51.494;6.670;2022-09-23T11:40:53;20.60;1.00
19017;DHT22;9641;51.494;6.670;2022-09-23T11:43:22;20.60;1.00
19017;DHT22;9641;51.494;6.670;2022-09-23T11:45:56;20.80;1.00
19017;DHT22;9641;51.494;6.670;2022-09-23T11:48:29;20.70;1.00
19017;DHT22;9641;51.494;6.670;2022-09-23T11:50:59;20.60;1.00
19017;DHT22;9641;51.494;6.670;2022-09-23T11:53:35;20.40;1.00
19017;DHT22;9641;51.494;6.670;2022-09-23T11:56:08;20.20;1.00
19017;DHT22;9641;51.494;6.670;2022-09-23T11:58:41;20.20;1.00
19017;DHT22;9641;51.494;6.670;2022-09-23T12:01:16;20.40;1.00
19017;DHT22;9641;51.494;6.670;2022-09-23T12:03:50;20.50;1.00
19017;DHT22;9641;51.494;6.670;2022-09-23T12:06:23;20.70;1.00
19017;DHT22;9641;51.494;6.670;2022-09-23T12:08:54;20.80;1.00
19017;DHT22;9641;51.494;6.670;2022-09-23T12:11:27;20.80;1.00
19017;DHT22;9641;51.494;6.670;2022-09-23T12:14:07;20.60;1.00
19017;DHT22;9641;51.494;6.670;2022-09-23T12:16:57;20.40;1.00
19017;DHT22;9641;51.494;6.670;2022-09-23T12:19:42;20.30;1.00
19017;DHT22;9641;51.494;6.670;2022-09-23T12:22:30;20.20;1.00
19017;DHT22;9641;51.494;6.670;2022-09-23T12:25:14;20.30;1.00
19017;DHT22;9641;51.494;6.670;2022-09-23T12:27:48;20.20;1.00
19017;DHT22;9641;51.494;6.670;2022-09-23T12:30:18;20.10;1.00
19017;DHT22;9641;51.494;6.670;2022-09-23T12:32:46;20.00;1.00
19017;DHT22;9641;51.494;6.670;2022-09-23T12:35:21;19.90;1.00
19017;DHT22;9641;51.494;6.670;2022-09-23T12:37:49;20.00;1.00
19017;DHT22;9641;51.494;6.670;2022-09-23T12:40:20;20.00;1.00
19017;DHT22;9641;51.494;6.670;2022-09-23T12:42:48;20.00;1.00
19017;DHT22;9641;51.494;6.670;2022-09-23T12:45:31;20.00;1.00
19017;DHT22;9641;51.494;6.670;2022-09-23T12:48:01;19.80;1.00
19017;DHT22;9641;51.494;6.670;2022-09-23T12:50:49;19.90;1.00
19017;DHT22;9641;51.494;6.670;2022-09-23T12:53:53;20.00;1.00
19017;DHT22;9641;51.494;6.670;2022-09-23T12:56:23;20.20;1.00
19017;DHT22;9641;51.494;6.670;2022-09-23T12:59:19;20.20;1.00
19017;DHT22;9641;51.494;6.670;2022-09-23T13:01:46;20.10;1.00
19017;DHT22;9641;51.494;6.670;2022-09-23T13:04:33;20.10;1.00
19017;DHT22;9641;51.494;6.670;2022-09-23T13:07:28;20.10;1.00
19017;DHT22;9641;51.494;6.670;2022-09-23T13:10:04;20.10;1.00
19017;DHT22;9641;51.494;6.670;2022-09-23T13:12:34;20.00;1.00
19017;DHT22;9641;51.494;6.670;2022-09-23T13:15:11;19.90;1.00
19017;DHT22;9641;51.494;6.670;2022-09-23T13:17:40;19.80;1.00
19017;DHT22;9641;51.494;6.670;2022-09-23T13:20:34;19.80;1.00
19017;DHT22;9641;51.494;6.670;2022-09-23T13:23:14;19.80;1.00
19017;DHT22;9641;51.494;6.670;2022-09-23T13:25:44;19.80;1.00
19017;DHT22;9641;51.494;6.670;2022-09-23T13:28:27;19.90;1.00
19017;DHT22;9641;51.494;6.670;2022-09-23T13:30:55;19.80;1.00
19017;DHT22;9641;51.494;6.670;2022-09-23T13:33:29;19.70;1.00
19017;DHT22;9641;51.494;6.670;2022-09-23T13:36:00;19.60;1.00
19017;DHT22;9641;51.494;6.670;2022-09-23T13:38:29;19.60;1.00
19017;DHT22;9641;51.494;6.670;2022-09-23T13:41:01;19.70;1.00
19017;DHT22;9641;51.494;6.670;2022-09-23T13:43:33;19.70;1.00
19017;DHT22;9641;51.494;6.670;2022-09-23T13:46:08;19.80;1.00
19017;DHT22;9641;51.494;6.670;2022-09-23T13:48:38;19.80;1.00
19017;DHT22;9641;51.494;6.670;2022-09-23T13:51:09;19.70;1.00
19017;DHT22;9641;51.494;6.670;2022-09-23T13:53:37;19.50;1.00
19017;DHT22;9641;51.494;6.670;2022-09-23T13:56:05;19.40;1.00
19017;DHT22;9641;51.494;6.670;2022-09-23T13:58:34;19.30;1.00
19017;DHT22;9641;51.494;6.670;2022-09-23T14:01:01;19.30;1.00
19017;DHT22;9641;51.494;6.670;2022-09-23T14:03:30;19.30;1.00
19017;DHT22;9641;51.494;6.670;2022-09-23T14:06:00;19.40;1.00
19017;DHT22;9641;51.494;6.670;2022-09-23T14:08:29;19.40;1.00
19017;DHT22;9641;51.494;6.670;2022-09-23T14:10:57;19.40;1.00
19017;DHT22;9641;51.494;6.670;2022-09-23T14:13:26;19.40;1.00
19017;DHT22;9641;51.494;6.670;2022-09-23T14:15:56;19.30;1.00
19017;DHT22;9641;51.494;6.670;2022-09-23T14:18:29;19.20;1.00
19017;DHT22;9641;51.494;6.670;2022-09-23T14:20:57;19.10;1.00
19017;DHT22;9641;51.494;6.670;2022-09-23T14:23:24;19.20;1.00
19017;DHT22;9641;51.494;6.670;2022-09-23T14:25:52;19.20;1.00
19017;DHT22;9641;51.494;6.670;2022-09-23T14:28:21;19.20;1.00
19017;DHT22;9641;51.494;6.670;2022-09-23T14:30:50;19.20;1.00
19017;DHT22;9641;51.494;6.670;2022-09-23T14:33:22;19.10;1.00
19017;DHT22;9641;51.494;6.670;2022-09-23T14:35:54;19.10;1.00
19017;DHT22;9641;51.494;6.670;2022-09-23T14:38:24;19.00;1.00
19017;DHT22;9641;51.494;6.670;2022-09-23T14:41:19;19.00;1.00
19017;DHT22;9641;51.494;6.670;2022-09-23T14:43:54;18.90;1.00
19017;DHT22;9641;51.494;6.670;2022-09-23T14:46:24;18.70;1.00
19017;DHT22;9641;51.494;6.670;2022-09-23T14:48:57;18.70;1.00
19017;DHT22;9641;51.494;6.670;2022-09-23T14:51:30;18.60;1.00
19017;DHT22;9641;51.494;6.670;2022-09-23T14:54:22;18.60;1.00
19017;DHT22;9641;51.494;6.670;2022-09-23T14:56:55;18.60;1.00
19017;DHT22;9641;51.494;6.670;2022-09-23T14:59:25;18.50;1.00
19017;DHT22;9641;51.494;6.670;2022-09-23T15:01:53;18.50;1.00
19017;DHT22;9641;51.494;6.670;2022-09-23T15:04:30;18.50;1.00
19017;DHT22;9641;51.494;6.670;2022-09-23T15:07:05;18.40;1.00
19017;DHT22;9641;51.494;6.670;2022-09-23T15:09:35;18.40;1.00
19017;DHT22;9641;51.494;6.670;2022-09-23T15:12:06;18.30;1.00
19017;DHT22;9641;51.494;6.670;2022-09-23T15:14:39;18.20;1.00
19017;DHT22;9641;51.494;6.670;2022-09-23T15:17:15;18.20;1.00
19017;DHT22;9641;51.494;6.670;2022-09-23T15:19:43;18.10;1.00
19017;DHT22;9641;51.494;6.670;2022-09-23T15:22:12;18.10;1.00
19017;DHT22;9641;51.494;6.670;2022-09-23T15:24:42;18.00;1.00
19017;DHT22;9641;51.494;6.670;2022-09-23T15:27:24;18.00;1.00
19017;DHT22;9641;51.494;6.670;2022-09-23T15:29:53;18.00;1.00
19017;DHT22;9641;51.494;6.670;2022-09-23T15:32:21;17.90;1.00
19017;DHT22;9641;51.494;6.670;2022-09-23T15:34:48;17.90;1.00
19017;DHT22;9641;51.494;6.670;2022-09-23T15:37:15;17.80;1.00
19017;DHT22;9641;51.494;6.670;2022-09-23T15:39:42;17.80;1.00
19017;DHT22;9641;51.494;6.670;2022-09-23T15:42:09;17.80;1.00
19017;DHT22;9641;51.494;6.670;2022-09-23T15:44:37;17.70;1.00
19017;DHT22;9641;51.494;6.670;2022-09-23T15:47:05;17.80;1.00
19017;DHT22;9641;51.494;6.670;2022-09-23T15:49:36;17.80;1.00
19017;DHT22;9641;51.494;6.670;2022-09-23T15:52:05;17.70;1.00
19017;DHT22;9641;51.494;6.670;2022-09-23T15:54:34;17.70;1.00
19017;DHT22;9641;51.494;6.670;2022-09-23T15:57:02;17.60;1.00
19017;DHT22;9641;51.494;6.670;2022-09-23T15:59:30;17.50;1.00
19017;DHT22;9641;51.494;6.670;2022-09-23T16:02:01;17.50;1.00
19017;DHT22;9641;51.494;6.670;2022-09-23T16:04:31;17.50;1.00
19017;DHT22;9641;51.494;6.670;2022-09-23T16:06:57;17.50;1.00
19017;DHT22;9641;51.494;6.670;2022-09-23T16:09:26;17.40;1.00
19017;DHT22;9641;51.494;6.670;2022-09-23T16:11:55;17.40;1.00
19017;DHT22;9641;51.494;6.670;2022-09-23T16:14:22;17.40;1.00
19017;DHT22;9641;51.494;6.670;2022-09-23T16:16:48;17.30;90.10
19017;DHT22;9641;51.494;6.670;2022-09-23T16:19:17;17.20;99.90
19017;DHT22;9641;51.494;6.670;2022-09-23T16:21:43;17.10;1.00
19017;DHT22;9641;51.494;6.670;2022-09-23T16:24:14;17.10;99.90
19017;DHT22;9641;51.494;6.670;2022-09-23T16:26:42;17.00;1.00
19017;DHT22;9641;51.494;6.670;2022-09-23T16:29:09;16.90;99.90